sensor_id;sensor_type;location;lat;lon;timestamp;P1;durP1;ratioP1;P2;durP2;ratioP2
2680;SDS011;1350;42.134;24.708;2024-02-15T00:00:32;12.95;;;7.22;;
2680;SDS011;1350;42.134;24.708;2024-02-15T00:03:11;8.32;;;5.97;;
2680;SDS011;1350;42.134;24.708;2024-02-15T00:05:57;12.48;;;7.53;;
2680;SDS011;1350;42.134;24.708;2024-02-15T00:11:38;8.88;;;6.15;;
2680;SDS011;1350;42.134;24.708;2024-02-15T00:14:11;10.75;;;6.60;;
2680;SDS011;1350;42.134;24.708;2024-02-15T00:16:50;12.00;;;7.05;;
2680;SDS011;1350;42.134;24.708;2024-02-15T00:19:17;11.60;;;7.57;;
2680;SDS011;1350;42.134;24.708;2024-02-15T00:21:45;10.05;;;6.95;;
2680;SDS011;1350;42.134;24.708;2024-02-15T00:24:12;11.38;;;7.65;;
2680;SDS011;1350;42.134;24.708;2024-02-15T00:26:40;12.13;;;7.70;;
2680;SDS011;1350;42.134;24.708;2024-02-15T00:29:07;11.23;;;7.13;;
2680;SDS011;1350;42.134;24.708;2024-02-15T00:31:34;11.18;;;7.68;;
2680;SDS011;1350;42.134;24.708;2024-02-15T00:34:03;9.70;;;6.82;;
2680;SDS011;1350;42.134;24.708;2024-02-15T00:36:30;10.68;;;7.55;;
2680;SDS011;1350;42.134;24.708;2024-02-15T00:39:00;12.80;;;7.75;;
2680;SDS011;1350;42.134;24.708;2024-02-15T00:41:29;15.23;;;7.13;;
2680;SDS011;1350;42.134;24.708;2024-02-15T00:43:58;11.20;;;6.90;;
2680;SDS011;1350;42.134;24.708;2024-02-15T00:46:25;16.67;;;7.28;;
2680;SDS011;1350;42.134;24.708;2024-02-15T00:48:54;9.98;;;7.15;;
2680;SDS011;1350;42.134;24.708;2024-02-15T00:51:21;12.10;;;6.75;;
2680;SDS011;1350;42.134;24.708;2024-02-15T00:53:48;9.52;;;5.90;;
2680;SDS011;1350;42.134;24.708;2024-02-15T00:56:17;8.60;;;5.90;;
2680;SDS011;1350;42.134;24.708;2024-02-15T00:58:44;9.73;;;6.53;;
2680;SDS011;1350;42.134;24.708;2024-02-15T01:01:11;11.23;;;7.53;;
2680;SDS011;1350;42.134;24.708;2024-02-15T01:03:38;10.43;;;6.55;;
2680;SDS011;1350;42.134;24.708;2024-02-15T01:06:05;9.68;;;6.55;;
2680;SDS011;1350;42.134;24.708;2024-02-15T01:08:34;10.38;;;6.85;;
2680;SDS011;1350;42.134;24.708;2024-02-15T01:11:38;10.93;;;6.68;;
2680;SDS011;1350;42.134;24.708;2024-02-15T01:14:07;10.98;;;7.10;;
2680;SDS011;1350;42.134;24.708;2024-02-15T01:16:47;9.32;;;5.80;;
2680;SDS011;1350;42.134;24.708;2024-02-15T01:19:14;11.60;;;7.30;;
2680;SDS011;1350;42.134;24.708;2024-02-15T01:21:41;13.13;;;6.65;;
2680;SDS011;1350;42.134;24.708;2024-02-15T01:24:09;11.00;;;7.07;;
2680;SDS011;1350;42.134;24.708;2024-02-15T01:26:37;12.75;;;7.50;;
2680;SDS011;1350;42.134;24.708;2024-02-15T01:29:04;13.20;;;6.95;;
2680;SDS011;1350;42.134;24.708;2024-02-15T01:31:31;9.93;;;6.88;;
2680;SDS011;1350;42.134;24.708;2024-02-15T01:33:58;13.63;;;7.47;;
2680;SDS011;1350;42.134;24.708;2024-02-15T01:36:25;10.90;;;7.05;;
2680;SDS011;1350;42.134;24.708;2024-02-15T01:38:52;9.38;;;6.38;;
2680;SDS011;1350;42.134;24.708;2024-02-15T01:41:19;14.88;;;8.15;;
2680;SDS011;1350;42.134;24.708;2024-02-15T01:43:47;14.00;;;6.85;;
2680;SDS011;1350;42.134;24.708;2024-02-15T01:46:15;12.30;;;7.30;;
2680;SDS011;1350;42.134;24.708;2024-02-15T01:48:42;10.98;;;7.03;;
2680;SDS011;1350;42.134;24.708;2024-02-15T01:51:10;10.00;;;7.68;;
2680;SDS011;1350;42.134;24.708;2024-02-15T01:53:40;13.23;;;8.43;;
2680;SDS011;1350;42.134;24.708;2024-02-15T01:56:08;11.07;;;7.00;;
2680;SDS011;1350;42.134;24.708;2024-02-15T01:58:38;14.40;;;8.52;;
2680;SDS011;1350;42.134;24.708;2024-02-15T02:01:08;29.67;;;10.95;;
2680;SDS011;1350;42.134;24.708;2024-02-15T02:03:36;15.20;;;7.60;;
2680;SDS011;1350;42.134;24.708;2024-02-15T02:06:03;11.32;;;6.63;;
2680;SDS011;1350;42.134;24.708;2024-02-15T02:08:33;10.40;;;6.70;;
2680;SDS011;1350;42.134;24.708;2024-02-15T02:11:02;11.52;;;7.00;;
2680;SDS011;1350;42.134;24.708;2024-02-15T02:13:53;9.20;;;6.68;;
2680;SDS011;1350;42.134;24.708;2024-02-15T02:16:45;10.52;;;6.88;;
2680;SDS011;1350;42.134;24.708;2024-02-15T02:19:45;14.82;;;7.60;;
2680;SDS011;1350;42.134;24.708;2024-02-15T02:27:47;10.45;;;7.00;;
2680;SDS011;1350;42.134;24.708;2024-02-15T02:30:39;12.80;;;7.55;;
2680;SDS011;1350;42.134;24.708;2024-02-15T02:33:16;9.82;;;5.95;;
2680;SDS011;1350;42.134;24.708;2024-02-15T02:35:56;11.00;;;7.25;;
2680;SDS011;1350;42.134;24.708;2024-02-15T02:38:26;11.68;;;6.65;;
2680;SDS011;1350;42.134;24.708;2024-02-15T02:41:05;11.45;;;7.50;;
2680;SDS011;1350;42.134;24.708;2024-02-15T02:43:44;10.73;;;7.15;;
2680;SDS011;1350;42.134;24.708;2024-02-15T02:46:17;11.68;;;7.80;;
2680;SDS011;1350;42.134;24.708;2024-02-15T02:48:50;10.48;;;6.60;;
2680;SDS011;1350;42.134;24.708;2024-02-15T02:51:17;11.05;;;7.30;;
2680;SDS011;1350;42.134;24.708;2024-02-15T02:53:45;11.75;;;8.18;;
2680;SDS011;1350;42.134;24.708;2024-02-15T02:56:13;12.13;;;7.03;;
2680;SDS011;1350;42.134;24.708;2024-02-15T02:58:40;10.52;;;6.75;;
2680;SDS011;1350;42.134;24.708;2024-02-15T03:01:09;12.23;;;8.20;;
2680;SDS011;1350;42.134;24.708;2024-02-15T03:03:36;11.27;;;7.80;;
2680;SDS011;1350;42.134;24.708;2024-02-15T03:06:04;11.40;;;7.30;;
2680;SDS011;1350;42.134;24.708;2024-02-15T03:08:31;9.60;;;6.72;;
2680;SDS011;1350;42.134;24.708;2024-02-15T03:10:59;12.32;;;8.52;;
2680;SDS011;1350;42.134;24.708;2024-02-15T03:13:27;15.32;;;7.28;;
2680;SDS011;1350;42.134;24.708;2024-02-15T03:15:54;9.73;;;6.95;;
2680;SDS011;1350;42.134;24.708;2024-02-15T03:18:21;10.68;;;6.45;;
2680;SDS011;1350;42.134;24.708;2024-02-15T03:20:49;13.00;;;8.20;;
2680;SDS011;1350;42.134;24.708;2024-02-15T03:23:16;11.75;;;7.75;;
2680;SDS011;1350;42.134;24.708;2024-02-15T03:25:43;11.52;;;8.45;;
2680;SDS011;1350;42.134;24.708;2024-02-15T03:28:10;11.30;;;7.15;;
2680;SDS011;1350;42.134;24.708;2024-02-15T03:30:38;10.88;;;6.65;;
2680;SDS011;1350;42.134;24.708;2024-02-15T03:33:05;10.27;;;7.10;;
2680;SDS011;1350;42.134;24.708;2024-02-15T03:35:32;11.80;;;7.45;;
2680;SDS011;1350;42.134;24.708;2024-02-15T03:38:00;11.90;;;7.30;;
2680;SDS011;1350;42.134;24.708;2024-02-15T03:40:27;12.45;;;8.57;;
2680;SDS011;1350;42.134;24.708;2024-02-15T03:42:55;11.07;;;6.55;;
2680;SDS011;1350;42.134;24.708;2024-02-15T03:45:22;10.25;;;7.38;;
2680;SDS011;1350;42.134;24.708;2024-02-15T03:47:51;11.15;;;7.97;;
2680;SDS011;1350;42.134;24.708;2024-02-15T03:50:19;14.05;;;8.48;;
2680;SDS011;1350;42.134;24.708;2024-02-15T03:52:46;11.70;;;7.70;;
2680;SDS011;1350;42.134;24.708;2024-02-15T03:55:13;13.20;;;8.45;;
2680;SDS011;1350;42.134;24.708;2024-02-15T03:57:40;11.88;;;7.47;;
2680;SDS011;1350;42.134;24.708;2024-02-15T04:00:08;11.13;;;7.30;;
2680;SDS011;1350;42.134;24.708;2024-02-15T04:02:38;13.13;;;8.38;;
2680;SDS011;1350;42.134;24.708;2024-02-15T04:07:54;17.73;;;9.13;;
2680;SDS011;1350;42.134;24.708;2024-02-15T04:10:21;13.10;;;8.88;;
2680;SDS011;1350;42.134;24.708;2024-02-15T04:12:48;12.60;;;8.38;;
2680;SDS011;1350;42.134;24.708;2024-02-15T04:15:15;10.43;;;8.07;;
2680;SDS011;1350;42.134;24.708;2024-02-15T04:17:43;12.90;;;7.47;;
2680;SDS011;1350;42.134;24.708;2024-02-15T04:20:10;16.95;;;8.65;;
2680;SDS011;1350;42.134;24.708;2024-02-15T04:22:41;14.35;;;8.60;;
2680;SDS011;1350;42.134;24.708;2024-02-15T04:25:08;18.27;;;8.38;;
2680;SDS011;1350;42.134;24.708;2024-02-15T04:27:36;13.07;;;9.05;;
2680;SDS011;1350;42.134;24.708;2024-02-15T04:30:03;11.75;;;7.28;;
2680;SDS011;1350;42.134;24.708;2024-02-15T04:32:32;13.68;;;8.90;;
2680;SDS011;1350;42.134;24.708;2024-02-15T04:34:59;10.32;;;7.65;;
2680;SDS011;1350;42.134;24.708;2024-02-15T04:37:28;10.15;;;6.95;;
2680;SDS011;1350;42.134;24.708;2024-02-15T04:39:58;10.75;;;7.57;;
2680;SDS011;1350;42.134;24.708;2024-02-15T04:42:33;14.45;;;8.60;;
2680;SDS011;1350;42.134;24.708;2024-02-15T04:45:01;14.43;;;8.20;;
2680;SDS011;1350;42.134;24.708;2024-02-15T04:47:28;13.55;;;8.68;;
2680;SDS011;1350;42.134;24.708;2024-02-15T04:49:56;18.73;;;8.43;;
2680;SDS011;1350;42.134;24.708;2024-02-15T04:52:23;11.77;;;7.07;;
2680;SDS011;1350;42.134;24.708;2024-02-15T04:54:50;10.88;;;7.28;;
2680;SDS011;1350;42.134;24.708;2024-02-15T04:57:20;11.48;;;7.53;;
2680;SDS011;1350;42.134;24.708;2024-02-15T04:59:47;13.63;;;7.72;;
2680;SDS011;1350;42.134;24.708;2024-02-15T05:02:18;13.70;;;6.53;;
2680;SDS011;1350;42.134;24.708;2024-02-15T05:04:58;11.88;;;7.43;;
2680;SDS011;1350;42.134;24.708;2024-02-15T05:07:30;12.40;;;8.65;;
2680;SDS011;1350;42.134;24.708;2024-02-15T05:09:57;14.25;;;7.38;;
2680;SDS011;1350;42.134;24.708;2024-02-15T05:12:25;13.70;;;7.57;;
2680;SDS011;1350;42.134;24.708;2024-02-15T05:14:52;11.07;;;7.47;;
2680;SDS011;1350;42.134;24.708;2024-02-15T05:17:38;20.83;;;7.78;;
2680;SDS011;1350;42.134;24.708;2024-02-15T05:20:07;12.27;;;7.35;;
2680;SDS011;1350;42.134;24.708;2024-02-15T05:22:38;18.30;;;7.72;;
2680;SDS011;1350;42.134;24.708;2024-02-15T05:25:09;14.40;;;7.65;;
2680;SDS011;1350;42.134;24.708;2024-02-15T05:27:38;12.98;;;8.20;;
2680;SDS011;1350;42.134;24.708;2024-02-15T05:30:07;18.25;;;7.63;;
2680;SDS011;1350;42.134;24.708;2024-02-15T05:32:36;16.52;;;9.38;;
2680;SDS011;1350;42.134;24.708;2024-02-15T05:35:07;14.57;;;8.55;;
2680;SDS011;1350;42.134;24.708;2024-02-15T05:37:34;13.75;;;7.22;;
2680;SDS011;1350;42.134;24.708;2024-02-15T05:40:01;11.63;;;7.75;;
2680;SDS011;1350;42.134;24.708;2024-02-15T05:42:29;11.57;;;7.82;;
2680;SDS011;1350;42.134;24.708;2024-02-15T05:44:59;10.02;;;7.32;;
2680;SDS011;1350;42.134;24.708;2024-02-15T05:47:55;12.63;;;8.77;;
2680;SDS011;1350;42.134;24.708;2024-02-15T05:50:22;15.63;;;8.70;;
2680;SDS011;1350;42.134;24.708;2024-02-15T05:52:49;10.13;;;7.68;;
2680;SDS011;1350;42.134;24.708;2024-02-15T05:55:18;13.30;;;8.25;;
2680;SDS011;1350;42.134;24.708;2024-02-15T05:57:45;13.38;;;8.05;;
2680;SDS011;1350;42.134;24.708;2024-02-15T06:00:14;9.82;;;7.93;;
2680;SDS011;1350;42.134;24.708;2024-02-15T06:02:44;12.60;;;7.28;;
2680;SDS011;1350;42.134;24.708;2024-02-15T06:05:11;12.82;;;7.95;;
2680;SDS011;1350;42.134;24.708;2024-02-15T06:07:37;16.05;;;7.90;;
2680;SDS011;1350;42.134;24.708;2024-02-15T06:10:05;12.65;;;8.13;;
2680;SDS011;1350;42.134;24.708;2024-02-15T06:12:32;16.92;;;8.43;;
2680;SDS011;1350;42.134;24.708;2024-02-15T06:14:59;14.60;;;7.30;;
2680;SDS011;1350;42.134;24.708;2024-02-15T06:17:31;19.48;;;9.07;;
2680;SDS011;1350;42.134;24.708;2024-02-15T06:19:58;20.92;;;8.13;;
2680;SDS011;1350;42.134;24.708;2024-02-15T06:22:25;26.30;;;9.30;;
2680;SDS011;1350;42.134;24.708;2024-02-15T06:24:53;11.10;;;8.18;;
2680;SDS011;1350;42.134;24.708;2024-02-15T06:27:20;14.40;;;8.45;;
2680;SDS011;1350;42.134;24.708;2024-02-15T06:29:49;15.20;;;8.60;;
2680;SDS011;1350;42.134;24.708;2024-02-15T06:32:35;13.35;;;8.90;;
2680;SDS011;1350;42.134;24.708;2024-02-15T06:35:19;10.70;;;7.47;;
2680;SDS011;1350;42.134;24.708;2024-02-15T06:38:03;11.25;;;8.00;;
2680;SDS011;1350;42.134;24.708;2024-02-15T06:40:50;18.05;;;8.10;;
2680;SDS011;1350;42.134;24.708;2024-02-15T06:43:19;19.75;;;8.68;;
2680;SDS011;1350;42.134;24.708;2024-02-15T06:45:46;16.45;;;8.40;;
2680;SDS011;1350;42.134;24.708;2024-02-15T06:48:17;17.83;;;8.80;;
2680;SDS011;1350;42.134;24.708;2024-02-15T06:50:47;15.93;;;8.90;;
2680;SDS011;1350;42.134;24.708;2024-02-15T06:53:14;16.30;;;8.75;;
2680;SDS011;1350;42.134;24.708;2024-02-15T06:55:45;14.75;;;8.65;;
2680;SDS011;1350;42.134;24.708;2024-02-15T06:58:14;17.67;;;8.35;;
2680;SDS011;1350;42.134;24.708;2024-02-15T07:00:41;12.63;;;8.40;;
2680;SDS011;1350;42.134;24.708;2024-02-15T07:03:08;13.55;;;8.50;;
2680;SDS011;1350;42.134;24.708;2024-02-15T07:05:37;17.58;;;8.35;;
2680;SDS011;1350;42.134;24.708;2024-02-15T07:08:07;17.67;;;9.10;;
2680;SDS011;1350;42.134;24.708;2024-02-15T07:10:36;14.93;;;8.93;;
2680;SDS011;1350;42.134;24.708;2024-02-15T07:13:03;20.15;;;9.48;;
2680;SDS011;1350;42.134;24.708;2024-02-15T07:15:31;20.38;;;9.10;;
2680;SDS011;1350;42.134;24.708;2024-02-15T07:17:58;19.42;;;8.75;;
2680;SDS011;1350;42.134;24.708;2024-02-15T07:20:26;18.50;;;8.43;;
2680;SDS011;1350;42.134;24.708;2024-02-15T07:22:54;11.05;;;7.07;;
2680;SDS011;1350;42.134;24.708;2024-02-15T07:25:21;20.60;;;8.38;;
2680;SDS011;1350;42.134;24.708;2024-02-15T07:27:48;13.25;;;8.00;;
2680;SDS011;1350;42.134;24.708;2024-02-15T07:30:15;15.63;;;9.05;;
2680;SDS011;1350;42.134;24.708;2024-02-15T07:32:42;12.65;;;7.88;;
2680;SDS011;1350;42.134;24.708;2024-02-15T07:35:09;15.63;;;7.93;;
2680;SDS011;1350;42.134;24.708;2024-02-15T07:37:36;27.95;;;9.25;;
2680;SDS011;1350;42.134;24.708;2024-02-15T07:40:06;22.38;;;10.25;;
2680;SDS011;1350;42.134;24.708;2024-02-15T07:42:34;28.02;;;9.68;;
2680;SDS011;1350;42.134;24.708;2024-02-15T07:45:01;13.25;;;8.55;;
2680;SDS011;1350;42.134;24.708;2024-02-15T07:47:31;17.42;;;9.15;;
2680;SDS011;1350;42.134;24.708;2024-02-15T07:49:58;11.90;;;8.15;;
2680;SDS011;1350;42.134;24.708;2024-02-15T07:52:26;17.02;;;8.57;;
2680;SDS011;1350;42.134;24.708;2024-02-15T07:54:54;11.77;;;8.38;;
2680;SDS011;1350;42.134;24.708;2024-02-15T07:57:22;11.30;;;7.80;;
2680;SDS011;1350;42.134;24.708;2024-02-15T07:59:50;12.98;;;9.23;;
2680;SDS011;1350;42.134;24.708;2024-02-15T08:02:17;16.17;;;8.23;;
2680;SDS011;1350;42.134;24.708;2024-02-15T08:04:47;15.68;;;9.30;;
2680;SDS011;1350;42.134;24.708;2024-02-15T08:07:14;15.80;;;10.27;;
2680;SDS011;1350;42.134;24.708;2024-02-15T08:09:41;18.63;;;8.65;;
2680;SDS011;1350;42.134;24.708;2024-02-15T08:12:09;15.93;;;8.35;;
2680;SDS011;1350;42.134;24.708;2024-02-15T08:14:37;15.82;;;8.95;;
2680;SDS011;1350;42.134;24.708;2024-02-15T08:17:05;17.38;;;9.10;;
2680;SDS011;1350;42.134;24.708;2024-02-15T08:19:33;11.60;;;8.18;;
2680;SDS011;1350;42.134;24.708;2024-02-15T08:22:03;10.95;;;7.60;;
2680;SDS011;1350;42.134;24.708;2024-02-15T08:24:30;12.98;;;9.18;;
2680;SDS011;1350;42.134;24.708;2024-02-15T08:26:57;15.82;;;8.85;;
2680;SDS011;1350;42.134;24.708;2024-02-15T08:29:25;13.80;;;9.18;;
2680;SDS011;1350;42.134;24.708;2024-02-15T08:31:53;11.70;;;7.57;;
2680;SDS011;1350;42.134;24.708;2024-02-15T08:34:20;10.53;;;8.07;;
2680;SDS011;1350;42.134;24.708;2024-02-15T08:36:47;14.60;;;8.27;;
2680;SDS011;1350;42.134;24.708;2024-02-15T08:39:14;11.70;;;8.30;;
2680;SDS011;1350;42.134;24.708;2024-02-15T08:41:42;15.83;;;9.10;;
2680;SDS011;1350;42.134;24.708;2024-02-15T08:44:09;14.63;;;8.83;;
2680;SDS011;1350;42.134;24.708;2024-02-15T08:46:40;12.47;;;9.00;;
2680;SDS011;1350;42.134;24.708;2024-02-15T08:49:08;12.27;;;8.43;;
2680;SDS011;1350;42.134;24.708;2024-02-15T08:51:37;17.10;;;8.37;;
2680;SDS011;1350;42.134;24.708;2024-02-15T08:54:04;14.70;;;9.07;;
2680;SDS011;1350;42.134;24.708;2024-02-15T08:56:31;18.23;;;9.60;;
2680;SDS011;1350;42.134;24.708;2024-02-15T08:59:01;12.83;;;8.10;;
2680;SDS011;1350;42.134;24.708;2024-02-15T09:01:28;13.03;;;9.30;;
2680;SDS011;1350;42.134;24.708;2024-02-15T09:03:55;29.20;;;9.53;;
2680;SDS011;1350;42.134;24.708;2024-02-15T09:06:24;16.67;;;9.18;;
2680;SDS011;1350;42.134;24.708;2024-02-15T09:08:51;15.40;;;8.70;;
2680;SDS011;1350;42.134;24.708;2024-02-15T09:11:18;17.00;;;10.37;;
2680;SDS011;1350;42.134;24.708;2024-02-15T09:13:46;14.90;;;9.10;;
2680;SDS011;1350;42.134;24.708;2024-02-15T09:16:16;11.40;;;8.40;;
2680;SDS011;1350;42.134;24.708;2024-02-15T09:18:43;18.97;;;8.80;;
2680;SDS011;1350;42.134;24.708;2024-02-15T09:21:10;11.83;;;8.70;;
2680;SDS011;1350;42.134;24.708;2024-02-15T09:23:38;21.73;;;9.43;;
2680;SDS011;1350;42.134;24.708;2024-02-15T09:26:05;15.23;;;8.20;;
2680;SDS011;1350;42.134;24.708;2024-02-15T09:28:35;11.83;;;8.57;;
2680;SDS011;1350;42.134;24.708;2024-02-15T09:31:02;15.60;;;8.70;;
2680;SDS011;1350;42.134;24.708;2024-02-15T09:33:29;14.93;;;8.20;;
2680;SDS011;1350;42.134;24.708;2024-02-15T09:35:56;11.43;;;7.93;;
2680;SDS011;1350;42.134;24.708;2024-02-15T09:38:22;14.43;;;8.60;;
2680;SDS011;1350;42.134;24.708;2024-02-15T09:40:51;13.50;;;8.27;;
2680;SDS011;1350;42.134;24.708;2024-02-15T09:43:19;14.57;;;7.87;;
2680;SDS011;1350;42.134;24.708;2024-02-15T09:45:46;14.60;;;8.43;;
2680;SDS011;1350;42.134;24.708;2024-02-15T09:48:13;15.33;;;8.40;;
2680;SDS011;1350;42.134;24.708;2024-02-15T09:50:43;11.70;;;8.17;;
2680;SDS011;1350;42.134;24.708;2024-02-15T09:53:12;15.27;;;9.17;;
2680;SDS011;1350;42.134;24.708;2024-02-15T09:55:40;19.97;;;8.07;;
2680;SDS011;1350;42.134;24.708;2024-02-15T09:58:10;14.27;;;7.60;;
2680;SDS011;1350;42.134;24.708;2024-02-15T10:00:38;13.37;;;8.10;;
2680;SDS011;1350;42.134;24.708;2024-02-15T10:03:05;11.10;;;7.40;;
2680;SDS011;1350;42.134;24.708;2024-02-15T10:05:33;13.30;;;8.50;;
2680;SDS011;1350;42.134;24.708;2024-02-15T10:08:00;15.30;;;8.80;;
2680;SDS011;1350;42.134;24.708;2024-02-15T10:10:28;17.57;;;8.97;;
2680;SDS011;1350;42.134;24.708;2024-02-15T10:12:55;16.70;;;8.60;;
2680;SDS011;1350;42.134;24.708;2024-02-15T10:15:30;15.50;;;8.43;;
2680;SDS011;1350;42.134;24.708;2024-02-15T10:17:59;11.67;;;7.40;;
2680;SDS011;1350;42.134;24.708;2024-02-15T10:20:27;14.13;;;8.50;;
2680;SDS011;1350;42.134;24.708;2024-02-15T10:22:58;12.33;;;6.77;;
2680;SDS011;1350;42.134;24.708;2024-02-15T10:25:36;13.30;;;7.57;;
2680;SDS011;1350;42.134;24.708;2024-02-15T10:28:03;10.47;;;6.33;;
2680;SDS011;1350;42.134;24.708;2024-02-15T10:30:33;13.40;;;8.97;;
2680;SDS011;1350;42.134;24.708;2024-02-15T10:33:01;31.53;;;10.50;;
2680;SDS011;1350;42.134;24.708;2024-02-15T10:35:28;15.40;;;8.50;;
2680;SDS011;1350;42.134;24.708;2024-02-15T10:38:04;10.53;;;7.33;;
2680;SDS011;1350;42.134;24.708;2024-02-15T10:40:33;17.33;;;7.87;;
2680;SDS011;1350;42.134;24.708;2024-02-15T10:43:00;17.13;;;8.00;;
2680;SDS011;1350;42.134;24.708;2024-02-15T10:45:29;17.53;;;8.67;;
2680;SDS011;1350;42.134;24.708;2024-02-15T10:47:58;19.47;;;8.47;;
2680;SDS011;1350;42.134;24.708;2024-02-15T10:50:25;13.20;;;7.80;;
2680;SDS011;1350;42.134;24.708;2024-02-15T10:52:54;11.17;;;6.80;;
2680;SDS011;1350;42.134;24.708;2024-02-15T10:55:26;10.13;;;6.80;;
2680;SDS011;1350;42.134;24.708;2024-02-15T10:58:02;14.97;;;7.50;;
2680;SDS011;1350;42.134;24.708;2024-02-15T11:00:32;15.80;;;7.33;;
2680;SDS011;1350;42.134;24.708;2024-02-15T11:03:04;11.50;;;6.93;;
2680;SDS011;1350;42.134;24.708;2024-02-15T11:05:33;16.53;;;7.40;;
2680;SDS011;1350;42.134;24.708;2024-02-15T11:08:03;14.43;;;6.63;;
2680;SDS011;1350;42.134;24.708;2024-02-15T11:10:32;12.87;;;6.33;;
2680;SDS011;1350;42.134;24.708;2024-02-15T11:13:00;13.80;;;6.93;;
2680;SDS011;1350;42.134;24.708;2024-02-15T11:15:41;11.50;;;6.80;;
2680;SDS011;1350;42.134;24.708;2024-02-15T11:18:15;10.07;;;6.27;;
2680;SDS011;1350;42.134;24.708;2024-02-15T11:21:14;11.17;;;6.20;;
2680;SDS011;1350;42.134;24.708;2024-02-15T11:23:42;11.70;;;7.30;;
2680;SDS011;1350;42.134;24.708;2024-02-15T11:26:10;19.00;;;7.70;;
2680;SDS011;1350;42.134;24.708;2024-02-15T11:29:04;10.20;;;6.77;;
2680;SDS011;1350;42.134;24.708;2024-02-15T11:31:53;10.13;;;6.00;;
2680;SDS011;1350;42.134;24.708;2024-02-15T11:40:13;10.03;;;6.37;;
2680;SDS011;1350;42.134;24.708;2024-02-15T11:42:40;8.60;;;5.90;;
2680;SDS011;1350;42.134;24.708;2024-02-15T11:45:09;10.80;;;6.30;;
2680;SDS011;1350;42.134;24.708;2024-02-15T11:47:37;13.80;;;6.57;;
2680;SDS011;1350;42.134;24.708;2024-02-15T11:50:08;9.70;;;6.70;;
2680;SDS011;1350;42.134;24.708;2024-02-15T11:52:40;16.40;;;6.10;;
2680;SDS011;1350;42.134;24.708;2024-02-15T11:55:07;16.70;;;6.53;;
2680;SDS011;1350;42.134;24.708;2024-02-15T11:57:38;14.03;;;6.00;;
2680;SDS011;1350;42.134;24.708;2024-02-15T12:00:22;12.10;;;6.50;;
2680;SDS011;1350;42.134;24.708;2024-02-15T12:03:07;10.53;;;5.00;;
2680;SDS011;1350;42.134;24.708;2024-02-15T12:05:51;14.37;;;5.47;;
2680;SDS011;1350;42.134;24.708;2024-02-15T12:08:35;9.17;;;5.67;;
2680;SDS011;1350;42.134;24.708;2024-02-15T12:11:20;8.10;;;6.40;;
2680;SDS011;1350;42.134;24.708;2024-02-15T12:17:27;14.00;;;6.93;;
2680;SDS011;1350;42.134;24.708;2024-02-15T12:20:11;11.27;;;5.43;;
2680;SDS011;1350;42.134;24.708;2024-02-15T12:22:40;11.30;;;6.30;;
2680;SDS011;1350;42.134;24.708;2024-02-15T12:25:13;13.90;;;6.63;;
2680;SDS011;1350;42.134;24.708;2024-02-15T12:27:41;10.97;;;6.20;;
2680;SDS011;1350;42.134;24.708;2024-02-15T12:30:12;14.40;;;6.50;;
2680;SDS011;1350;42.134;24.708;2024-02-15T12:32:41;9.70;;;5.90;;
2680;SDS011;1350;42.134;24.708;2024-02-15T12:35:12;8.47;;;5.23;;
2680;SDS011;1350;42.134;24.708;2024-02-15T12:37:42;12.10;;;6.00;;
2680;SDS011;1350;42.134;24.708;2024-02-15T12:40:12;11.97;;;5.70;;
2680;SDS011;1350;42.134;24.708;2024-02-15T12:42:41;9.23;;;5.33;;
2680;SDS011;1350;42.134;24.708;2024-02-15T12:45:14;18.27;;;7.10;;
2680;SDS011;1350;42.134;24.708;2024-02-15T12:47:47;10.07;;;6.03;;
2680;SDS011;1350;42.134;24.708;2024-02-15T12:50:15;33.43;;;9.03;;
2680;SDS011;1350;42.134;24.708;2024-02-15T12:52:42;10.33;;;6.20;;
2680;SDS011;1350;42.134;24.708;2024-02-15T12:55:13;9.87;;;5.90;;
2680;SDS011;1350;42.134;24.708;2024-02-15T12:57:42;10.90;;;7.27;;
2680;SDS011;1350;42.134;24.708;2024-02-15T13:00:11;10.17;;;6.20;;
2680;SDS011;1350;42.134;24.708;2024-02-15T13:02:43;10.03;;;4.97;;
2680;SDS011;1350;42.134;24.708;2024-02-15T13:05:11;10.40;;;6.10;;
2680;SDS011;1350;42.134;24.708;2024-02-15T13:07:39;13.33;;;5.30;;
2680;SDS011;1350;42.134;24.708;2024-02-15T13:10:06;12.93;;;7.97;;
2680;SDS011;1350;42.134;24.708;2024-02-15T13:12:34;9.60;;;6.40;;
2680;SDS011;1350;42.134;24.708;2024-02-15T13:15:03;9.57;;;6.00;;
2680;SDS011;1350;42.134;24.708;2024-02-15T13:17:31;10.00;;;5.77;;
2680;SDS011;1350;42.134;24.708;2024-02-15T13:19:59;8.83;;;6.03;;
2680;SDS011;1350;42.134;24.708;2024-02-15T13:22:32;12.30;;;5.53;;
2680;SDS011;1350;42.134;24.708;2024-02-15T13:25:01;15.70;;;6.40;;
2680;SDS011;1350;42.134;24.708;2024-02-15T13:27:29;12.23;;;6.73;;
2680;SDS011;1350;42.134;24.708;2024-02-15T13:29:56;10.33;;;5.43;;
2680;SDS011;1350;42.134;24.708;2024-02-15T13:32:23;9.87;;;5.40;;
2680;SDS011;1350;42.134;24.708;2024-02-15T13:34:50;11.03;;;5.70;;
2680;SDS011;1350;42.134;24.708;2024-02-15T13:37:21;9.20;;;5.40;;
2680;SDS011;1350;42.134;24.708;2024-02-15T13:39:51;20.13;;;5.43;;
2680;SDS011;1350;42.134;24.708;2024-02-15T13:42:18;11.03;;;4.70;;
2680;SDS011;1350;42.134;24.708;2024-02-15T13:44:44;11.50;;;5.07;;
2680;SDS011;1350;42.134;24.708;2024-02-15T13:47:12;8.77;;;5.70;;
2680;SDS011;1350;42.134;24.708;2024-02-15T13:49:41;15.50;;;6.40;;
2680;SDS011;1350;42.134;24.708;2024-02-15T13:52:08;9.87;;;4.90;;
2680;SDS011;1350;42.134;24.708;2024-02-15T13:54:36;12.07;;;5.87;;
2680;SDS011;1350;42.134;24.708;2024-02-15T13:57:04;11.13;;;6.00;;
2680;SDS011;1350;42.134;24.708;2024-02-15T13:59:32;13.50;;;6.70;;
2680;SDS011;1350;42.134;24.708;2024-02-15T14:02:00;8.93;;;5.50;;
2680;SDS011;1350;42.134;24.708;2024-02-15T14:04:28;10.27;;;5.13;;
2680;SDS011;1350;42.134;24.708;2024-02-15T14:06:57;10.87;;;5.60;;
2680;SDS011;1350;42.134;24.708;2024-02-15T14:09:25;9.00;;;5.03;;
2680;SDS011;1350;42.134;24.708;2024-02-15T14:11:52;73.13;;;14.83;;
2680;SDS011;1350;42.134;24.708;2024-02-15T14:14:21;9.73;;;5.23;;
2680;SDS011;1350;42.134;24.708;2024-02-15T14:16:48;10.30;;;5.63;;
2680;SDS011;1350;42.134;24.708;2024-02-15T14:19:18;13.77;;;6.50;;
2680;SDS011;1350;42.134;24.708;2024-02-15T14:21:46;10.10;;;5.80;;
2680;SDS011;1350;42.134;24.708;2024-02-15T14:24:13;21.03;;;6.40;;
2680;SDS011;1350;42.134;24.708;2024-02-15T14:26:41;8.70;;;5.83;;
2680;SDS011;1350;42.134;24.708;2024-02-15T14:29:08;12.53;;;5.57;;
2680;SDS011;1350;42.134;24.708;2024-02-15T14:31:36;10.70;;;5.30;;
2680;SDS011;1350;42.134;24.708;2024-02-15T14:34:20;8.63;;;5.47;;
2680;SDS011;1350;42.134;24.708;2024-02-15T14:36:50;9.23;;;4.53;;
2680;SDS011;1350;42.134;24.708;2024-02-15T14:39:17;13.63;;;4.93;;
2680;SDS011;1350;42.134;24.708;2024-02-15T14:41:44;8.57;;;4.90;;
2680;SDS011;1350;42.134;24.708;2024-02-15T14:44:11;9.33;;;5.20;;
2680;SDS011;1350;42.134;24.708;2024-02-15T14:46:40;12.00;;;6.50;;
2680;SDS011;1350;42.134;24.708;2024-02-15T14:49:07;8.80;;;5.80;;
2680;SDS011;1350;42.134;24.708;2024-02-15T14:51:34;11.88;;;6.47;;
2680;SDS011;1350;42.134;24.708;2024-02-15T14:54:04;13.63;;;6.57;;
2680;SDS011;1350;42.134;24.708;2024-02-15T14:56:31;23.10;;;6.87;;
2680;SDS011;1350;42.134;24.708;2024-02-15T14:58:58;14.07;;;5.83;;
2680;SDS011;1350;42.134;24.708;2024-02-15T15:01:26;11.83;;;5.27;;
2680;SDS011;1350;42.134;24.708;2024-02-15T15:03:56;14.77;;;6.50;;
2680;SDS011;1350;42.134;24.708;2024-02-15T15:06:25;17.63;;;5.90;;
2680;SDS011;1350;42.134;24.708;2024-02-15T15:09:09;11.67;;;6.33;;
2680;SDS011;1350;42.134;24.708;2024-02-15T15:12:05;19.42;;;6.20;;
2680;SDS011;1350;42.134;24.708;2024-02-15T15:14:55;9.85;;;4.80;;
2680;SDS011;1350;42.134;24.708;2024-02-15T15:17:22;12.40;;;6.07;;
2680;SDS011;1350;42.134;24.708;2024-02-15T15:19:52;16.20;;;5.37;;
2680;SDS011;1350;42.134;24.708;2024-02-15T15:22:19;15.32;;;5.60;;
2680;SDS011;1350;42.134;24.708;2024-02-15T15:24:46;8.23;;;4.63;;